sensor_id;sensor_type;location;lat;lon;timestamp;P1;durP1;ratioP1;P2;durP2;ratioP2
50012;SDS011;35901;48.694;9.476;2023-02-28T00:12:22;4.37;;;3.00;;
50012;SDS011;35901;48.694;9.476;2023-02-28T00:14:48;3.90;;;3.20;;
50012;SDS011;35901;48.694;9.476;2023-02-28T00:17:14;3.77;;;2.97;;
50012;SDS011;35901;48.694;9.476;2023-02-28T00:19:43;4.90;;;3.33;;
50012;SDS011;35901;48.694;9.476;2023-02-28T00:22:09;4.27;;;3.03;;
50012;SDS011;35901;48.694;9.476;2023-02-28T00:24:35;4.17;;;2.90;;
50012;SDS011;35901;48.694;9.476;2023-02-28T00:27:01;3.70;;;3.07;;
50012;SDS011;35901;48.694;9.476;2023-02-28T00:29:26;1.80;;;1.50;;
50012;SDS011;35901;48.694;9.476;2023-02-28T00:31:53;3.40;;;2.97;;
50012;SDS011;35901;48.694;9.476;2023-02-28T00:34:19;3.30;;;3.00;;
50012;SDS011;35901;48.694;9.476;2023-02-28T00:36:45;3.57;;;2.87;;
50012;SDS011;35901;48.694;9.476;2023-02-28T00:39:14;5.20;;;2.90;;
50012;SDS011;35901;48.694;9.476;2023-02-28T00:41:40;3.10;;;2.80;;
50012;SDS011;35901;48.694;9.476;2023-02-28T00:44:06;4.00;;;3.07;;
50012;SDS011;35901;48.694;9.476;2023-02-28T00:46:32;5.17;;;2.97;;
50012;SDS011;35901;48.694;9.476;2023-02-28T00:48:57;3.50;;;2.90;;
50012;SDS011;35901;48.694;9.476;2023-02-28T00:51:23;3.47;;;2.77;;
50012;SDS011;35901;48.694;9.476;2023-02-28T00:53:49;3.10;;;2.80;;
50012;SDS011;35901;48.694;9.476;2023-02-28T00:56:15;3.73;;;2.87;;
50012;SDS011;35901;48.694;9.476;2023-02-28T00:58:41;4.43;;;3.23;;
50012;SDS011;35901;48.694;9.476;2023-02-28T01:01:07;3.10;;;2.80;;
50012;SDS011;35901;48.694;9.476;2023-02-28T01:03:33;4.63;;;2.80;;
50012;SDS011;35901;48.694;9.476;2023-02-28T01:05:59;4.60;;;3.07;;
50012;SDS011;35901;48.694;9.476;2023-02-28T01:08:30;3.00;;;2.77;;
50012;SDS011;35901;48.694;9.476;2023-02-28T01:10:56;3.73;;;2.90;;
50012;SDS011;35901;48.694;9.476;2023-02-28T01:13:22;3.20;;;2.90;;
50012;SDS011;35901;48.694;9.476;2023-02-28T01:15:53;3.73;;;3.23;;
50012;SDS011;35901;48.694;9.476;2023-02-28T01:18:21;4.47;;;2.80;;
50012;SDS011;35901;48.694;9.476;2023-02-28T01:20:48;3.43;;;3.13;;
50012;SDS011;35901;48.694;9.476;2023-02-28T01:23:15;4.17;;;3.20;;
50012;SDS011;35901;48.694;9.476;2023-02-28T01:25:41;3.30;;;2.97;;
50012;SDS011;35901;48.694;9.476;2023-02-28T01:28:06;4.73;;;3.27;;
50012;SDS011;35901;48.694;9.476;2023-02-28T01:30:33;3.57;;;3.03;;
50012;SDS011;35901;48.694;9.476;2023-02-28T01:32:59;4.33;;;3.60;;
50012;SDS011;35901;48.694;9.476;2023-02-28T01:35:25;3.63;;;3.33;;
50012;SDS011;35901;48.694;9.476;2023-02-28T01:37:51;3.53;;;3.20;;
50012;SDS011;35901;48.694;9.476;2023-02-28T01:40:17;7.87;;;3.70;;
50012;SDS011;35901;48.694;9.476;2023-02-28T01:42:43;3.93;;;3.50;;
50012;SDS011;35901;48.694;9.476;2023-02-28T01:45:19;4.97;;;3.73;;
50012;SDS011;35901;48.694;9.476;2023-02-28T01:47:58;4.37;;;3.73;;
50012;SDS011;35901;48.694;9.476;2023-02-28T01:50:28;4.97;;;3.50;;
50012;SDS011;35901;48.694;9.476;2023-02-28T01:53:00;3.80;;;3.40;;
50012;SDS011;35901;48.694;9.476;2023-02-28T01:55:30;5.43;;;3.77;;
50012;SDS011;35901;48.694;9.476;2023-02-28T01:57:58;4.20;;;3.30;;
50012;SDS011;35901;48.694;9.476;2023-02-28T02:00:27;4.10;;;3.70;;
50012;SDS011;35901;48.694;9.476;2023-02-28T02:02:59;4.17;;;3.57;;
50012;SDS011;35901;48.694;9.476;2023-02-28T02:05:31;4.17;;;3.70;;
50012;SDS011;35901;48.694;9.476;2023-02-28T02:07:58;3.90;;;3.50;;
50012;SDS011;35901;48.694;9.476;2023-02-28T02:22:06;4.63;;;3.80;;
50012;SDS011;35901;48.694;9.476;2023-02-28T02:24:42;5.27;;;3.73;;
50012;SDS011;35901;48.694;9.476;2023-02-28T02:27:24;5.57;;;3.73;;
50012;SDS011;35901;48.694;9.476;2023-02-28T02:30:02;5.23;;;3.80;;
50012;SDS011;35901;48.694;9.476;2023-02-28T02:35:38;4.00;;;3.60;;
50012;SDS011;35901;48.694;9.476;2023-02-28T02:41:13;5.23;;;3.77;;
50012;SDS011;35901;48.694;9.476;2023-02-28T02:46:32;7.30;;;4.27;;
50012;SDS011;35901;48.694;9.476;2023-02-28T02:49:03;6.20;;;4.70;;
50012;SDS011;35901;48.694;9.476;2023-02-28T02:51:34;5.03;;;4.20;;
50012;SDS011;35901;48.694;9.476;2023-02-28T02:56:35;7.63;;;3.70;;
50012;SDS011;35901;48.694;9.476;2023-02-28T02:59:05;5.77;;;4.43;;
50012;SDS011;35901;48.694;9.476;2023-02-28T03:01:34;4.07;;;3.70;;
50012;SDS011;35901;48.694;9.476;2023-02-28T03:04:04;5.93;;;4.50;;
50012;SDS011;35901;48.694;9.476;2023-02-28T03:06:33;4.70;;;4.20;;
50012;SDS011;35901;48.694;9.476;2023-02-28T03:09:00;5.07;;;3.93;;
50012;SDS011;35901;48.694;9.476;2023-02-28T03:11:26;5.80;;;4.10;;
50012;SDS011;35901;48.694;9.476;2023-02-28T03:14:08;5.53;;;4.20;;
50012;SDS011;35901;48.694;9.476;2023-02-28T03:16:54;4.87;;;3.80;;
50012;SDS011;35901;48.694;9.476;2023-02-28T03:22:26;4.37;;;3.57;;
50012;SDS011;35901;48.694;9.476;2023-02-28T03:25:29;4.30;;;3.90;;
50012;SDS011;35901;48.694;9.476;2023-02-28T03:28:14;4.23;;;3.83;;
50012;SDS011;35901;48.694;9.476;2023-02-28T03:30:43;3.47;;;3.17;;
50012;SDS011;35901;48.694;9.476;2023-02-28T03:33:30;5.00;;;4.53;;
50012;SDS011;35901;48.694;9.476;2023-02-28T03:36:04;3.73;;;3.27;;
50012;SDS011;35901;48.694;9.476;2023-02-28T03:41:29;4.30;;;3.90;;
50012;SDS011;35901;48.694;9.476;2023-02-28T03:44:03;4.50;;;4.00;;
50012;SDS011;35901;48.694;9.476;2023-02-28T03:46:42;5.37;;;4.30;;
50012;SDS011;35901;48.694;9.476;2023-02-28T03:49:30;6.03;;;3.50;;
50012;SDS011;35901;48.694;9.476;2023-02-28T03:52:02;4.10;;;3.50;;
50012;SDS011;35901;48.694;9.476;2023-02-28T03:54:31;5.27;;;4.20;;
50012;SDS011;35901;48.694;9.476;2023-02-28T03:57:05;5.30;;;4.50;;
50012;SDS011;35901;48.694;9.476;2023-02-28T03:59:44;4.50;;;4.10;;
50012;SDS011;35901;48.694;9.476;2023-02-28T04:02:13;5.33;;;4.80;;
50012;SDS011;35901;48.694;9.476;2023-02-28T04:04:39;5.33;;;4.83;;
50012;SDS011;35901;48.694;9.476;2023-02-28T04:07:10;5.50;;;4.10;;
50012;SDS011;35901;48.694;9.476;2023-02-28T04:09:36;6.97;;;4.83;;
50012;SDS011;35901;48.694;9.476;2023-02-28T04:12:02;2.90;;;2.57;;
50012;SDS011;35901;48.694;9.476;2023-02-28T04:14:28;6.53;;;4.77;;
50012;SDS011;35901;48.694;9.476;2023-02-28T04:16:54;6.00;;;5.10;;
50012;SDS011;35901;48.694;9.476;2023-02-28T04:19:20;6.33;;;4.43;;
50012;SDS011;35901;48.694;9.476;2023-02-28T04:21:55;6.53;;;5.10;;
50012;SDS011;35901;48.694;9.476;2023-02-28T04:24:21;6.40;;;4.43;;
50012;SDS011;35901;48.694;9.476;2023-02-28T04:26:50;7.37;;;4.87;;
50012;SDS011;35901;48.694;9.476;2023-02-28T04:29:19;5.77;;;4.70;;
50012;SDS011;35901;48.694;9.476;2023-02-28T04:31:46;8.37;;;5.17;;
50012;SDS011;35901;48.694;9.476;2023-02-28T04:34:12;6.13;;;4.77;;
50012;SDS011;35901;48.694;9.476;2023-02-28T04:36:38;5.80;;;5.20;;
50012;SDS011;35901;48.694;9.476;2023-02-28T04:39:04;6.63;;;5.80;;
50012;SDS011;35901;48.694;9.476;2023-02-28T04:41:29;3.83;;;3.43;;
50012;SDS011;35901;48.694;9.476;2023-02-28T04:43:55;5.70;;;4.50;;
50012;SDS011;35901;48.694;9.476;2023-02-28T04:46:21;5.57;;;4.63;;
50012;SDS011;35901;48.694;9.476;2023-02-28T04:48:46;4.70;;;2.93;;
50012;SDS011;35901;48.694;9.476;2023-02-28T04:51:13;7.37;;;5.83;;
50012;SDS011;35901;48.694;9.476;2023-02-28T04:53:40;7.00;;;4.30;;
50012;SDS011;35901;48.694;9.476;2023-02-28T04:56:08;5.60;;;4.77;;
50012;SDS011;35901;48.694;9.476;2023-02-28T04:58:36;6.70;;;5.53;;
50012;SDS011;35901;48.694;9.476;2023-02-28T05:01:03;6.30;;;3.93;;
50012;SDS011;35901;48.694;9.476;2023-02-28T05:03:38;7.27;;;5.60;;
50012;SDS011;35901;48.694;9.476;2023-02-28T05:06:06;8.47;;;5.70;;
50012;SDS011;35901;48.694;9.476;2023-02-28T05:08:35;6.50;;;5.90;;
50012;SDS011;35901;48.694;9.476;2023-02-28T05:11:01;5.07;;;4.47;;
50012;SDS011;35901;48.694;9.476;2023-02-28T05:13:28;4.00;;;3.30;;
50012;SDS011;35901;48.694;9.476;2023-02-28T05:15:53;7.23;;;5.40;;
50012;SDS011;35901;48.694;9.476;2023-02-28T05:18:19;5.87;;;5.27;;
50012;SDS011;35901;48.694;9.476;2023-02-28T05:20:45;6.07;;;4.57;;
50012;SDS011;35901;48.694;9.476;2023-02-28T05:23:11;5.33;;;4.00;;
50012;SDS011;35901;48.694;9.476;2023-02-28T05:25:38;6.10;;;5.50;;
50012;SDS011;35901;48.694;9.476;2023-02-28T05:28:05;7.70;;;5.47;;
50012;SDS011;35901;48.694;9.476;2023-02-28T05:30:31;5.87;;;5.27;;
50012;SDS011;35901;48.694;9.476;2023-02-28T05:32:57;5.90;;;4.47;;
50012;SDS011;35901;48.694;9.476;2023-02-28T05:35:24;7.17;;;5.13;;
50012;SDS011;35901;48.694;9.476;2023-02-28T05:37:50;7.50;;;6.00;;
50012;SDS011;35901;48.694;9.476;2023-02-28T05:40:16;5.03;;;3.90;;
50012;SDS011;35901;48.694;9.476;2023-02-28T05:42:42;8.80;;;4.93;;
50012;SDS011;35901;48.694;9.476;2023-02-28T05:45:08;3.23;;;2.93;;
50012;SDS011;35901;48.694;9.476;2023-02-28T05:47:35;6.23;;;4.70;;
50012;SDS011;35901;48.694;9.476;2023-02-28T05:50:01;6.43;;;5.67;;
50012;SDS011;35901;48.694;9.476;2023-02-28T05:52:28;6.47;;;5.00;;
50012;SDS011;35901;48.694;9.476;2023-02-28T05:54:55;6.63;;;4.63;;
50012;SDS011;35901;48.694;9.476;2023-02-28T05:57:21;6.90;;;6.07;;
50012;SDS011;35901;48.694;9.476;2023-02-28T05:59:47;8.00;;;5.83;;
50012;SDS011;35901;48.694;9.476;2023-02-28T06:02:14;8.83;;;6.10;;
50012;SDS011;35901;48.694;9.476;2023-02-28T06:04:41;7.83;;;5.40;;
50012;SDS011;35901;48.694;9.476;2023-02-28T06:07:07;7.20;;;5.60;;
50012;SDS011;35901;48.694;9.476;2023-02-28T06:09:34;5.87;;;4.87;;
50012;SDS011;35901;48.694;9.476;2023-02-28T06:12:00;7.77;;;6.50;;
50012;SDS011;35901;48.694;9.476;2023-02-28T06:14:28;7.53;;;6.33;;
50012;SDS011;35901;48.694;9.476;2023-02-28T06:16:56;7.83;;;5.77;;
50012;SDS011;35901;48.694;9.476;2023-02-28T06:19:22;8.33;;;6.50;;
50012;SDS011;35901;48.694;9.476;2023-02-28T06:21:51;7.40;;;6.63;;
50012;SDS011;35901;48.694;9.476;2023-02-28T06:24:21;8.13;;;5.97;;
50012;SDS011;35901;48.694;9.476;2023-02-28T06:26:48;7.13;;;5.77;;
50012;SDS011;35901;48.694;9.476;2023-02-28T06:29:14;7.87;;;5.93;;
50012;SDS011;35901;48.694;9.476;2023-02-28T06:31:42;9.83;;;6.57;;
50012;SDS011;35901;48.694;9.476;2023-02-28T06:34:09;8.27;;;6.73;;
50012;SDS011;35901;48.694;9.476;2023-02-28T06:36:37;7.13;;;6.33;;
50012;SDS011;35901;48.694;9.476;2023-02-28T06:39:06;4.50;;;4.03;;
50012;SDS011;35901;48.694;9.476;2023-02-28T06:41:32;8.43;;;6.60;;
50012;SDS011;35901;48.694;9.476;2023-02-28T06:44:03;8.93;;;7.00;;
50012;SDS011;35901;48.694;9.476;2023-02-28T06:46:31;8.57;;;6.53;;
50012;SDS011;35901;48.694;9.476;2023-02-28T06:48:57;8.40;;;6.67;;
50012;SDS011;35901;48.694;9.476;2023-02-28T06:51:23;8.60;;;6.37;;
50012;SDS011;35901;48.694;9.476;2023-02-28T06:53:49;9.17;;;7.27;;
50012;SDS011;35901;48.694;9.476;2023-02-28T06:56:15;7.80;;;6.40;;
50012;SDS011;35901;48.694;9.476;2023-02-28T06:58:45;8.30;;;6.90;;
50012;SDS011;35901;48.694;9.476;2023-02-28T07:01:13;7.47;;;6.73;;
50012;SDS011;35901;48.694;9.476;2023-02-28T07:03:39;8.97;;;7.13;;
50012;SDS011;35901;48.694;9.476;2023-02-28T07:06:05;8.30;;;7.00;;
50012;SDS011;35901;48.694;9.476;2023-02-28T07:08:31;8.13;;;6.57;;
50012;SDS011;35901;48.694;9.476;2023-02-28T07:10:58;9.33;;;7.30;;
50012;SDS011;35901;48.694;9.476;2023-02-28T07:13:24;8.43;;;6.97;;
50012;SDS011;35901;48.694;9.476;2023-02-28T07:15:54;6.40;;;5.23;;
50012;SDS011;35901;48.694;9.476;2023-02-28T07:18:21;8.83;;;7.63;;
50012;SDS011;35901;48.694;9.476;2023-02-28T07:20:47;6.50;;;4.60;;
50012;SDS011;35901;48.694;9.476;2023-02-28T07:23:12;9.43;;;7.10;;
50012;SDS011;35901;48.694;9.476;2023-02-28T07:25:38;9.80;;;7.43;;
50012;SDS011;35901;48.694;9.476;2023-02-28T07:28:04;7.43;;;4.93;;
50012;SDS011;35901;48.694;9.476;2023-02-28T07:30:30;7.57;;;5.67;;
50012;SDS011;35901;48.694;9.476;2023-02-28T07:32:55;9.87;;;7.63;;
50012;SDS011;35901;48.694;9.476;2023-02-28T07:35:21;9.30;;;6.73;;
50012;SDS011;35901;48.694;9.476;2023-02-28T07:37:47;5.67;;;4.53;;
50012;SDS011;35901;48.694;9.476;2023-02-28T07:40:13;9.37;;;7.73;;
50012;SDS011;35901;48.694;9.476;2023-02-28T07:42:40;10.20;;;8.40;;
50012;SDS011;35901;48.694;9.476;2023-02-28T07:45:06;7.03;;;5.63;;
50012;SDS011;35901;48.694;9.476;2023-02-28T07:47:33;7.73;;;6.83;;
50012;SDS011;35901;48.694;9.476;2023-02-28T07:49:59;8.17;;;7.13;;
50012;SDS011;35901;48.694;9.476;2023-02-28T07:52:25;8.10;;;4.80;;
50012;SDS011;35901;48.694;9.476;2023-02-28T07:54:51;4.73;;;4.33;;
50012;SDS011;35901;48.694;9.476;2023-02-28T07:57:17;10.17;;;4.87;;
50012;SDS011;35901;48.694;9.476;2023-02-28T07:59:43;7.80;;;5.87;;
50012;SDS011;35901;48.694;9.476;2023-02-28T08:02:15;9.83;;;7.93;;
50012;SDS011;35901;48.694;9.476;2023-02-28T08:04:42;9.63;;;7.53;;
50012;SDS011;35901;48.694;9.476;2023-02-28T08:07:08;9.90;;;6.97;;
50012;SDS011;35901;48.694;9.476;2023-02-28T08:09:41;7.80;;;5.73;;
50012;SDS011;35901;48.694;9.476;2023-02-28T08:12:07;9.43;;;6.57;;
50012;SDS011;35901;48.694;9.476;2023-02-28T08:14:34;5.80;;;5.07;;
50012;SDS011;35901;48.694;9.476;2023-02-28T08:17:00;6.57;;;5.27;;
50012;SDS011;35901;48.694;9.476;2023-02-28T08:19:25;5.57;;;4.23;;
50012;SDS011;35901;48.694;9.476;2023-02-28T08:21:51;9.43;;;5.87;;
50012;SDS011;35901;48.694;9.476;2023-02-28T08:24:17;7.87;;;5.67;;
50012;SDS011;35901;48.694;9.476;2023-02-28T08:26:42;7.83;;;5.20;;
50012;SDS011;35901;48.694;9.476;2023-02-28T08:29:08;6.47;;;5.77;;
50012;SDS011;35901;48.694;9.476;2023-02-28T08:31:34;9.47;;;6.60;;
50012;SDS011;35901;48.694;9.476;2023-02-28T08:34:04;9.30;;;5.90;;
50012;SDS011;35901;48.694;9.476;2023-02-28T08:36:31;9.37;;;6.97;;
50012;SDS011;35901;48.694;9.476;2023-02-28T08:38:57;8.97;;;7.33;;
50012;SDS011;35901;48.694;9.476;2023-02-28T08:41:24;7.97;;;5.60;;
50012;SDS011;35901;48.694;9.476;2023-02-28T08:43:51;7.97;;;5.37;;
50012;SDS011;35901;48.694;9.476;2023-02-28T08:46:16;6.77;;;5.50;;
50012;SDS011;35901;48.694;9.476;2023-02-28T08:48:42;9.90;;;6.70;;
50012;SDS011;35901;48.694;9.476;2023-02-28T08:51:10;10.17;;;7.47;;
50012;SDS011;35901;48.694;9.476;2023-02-28T08:53:38;7.93;;;5.60;;
50012;SDS011;35901;48.694;9.476;2023-02-28T08:56:05;4.93;;;3.13;;
50012;SDS011;35901;48.694;9.476;2023-02-28T08:58:36;6.93;;;4.67;;
50012;SDS011;35901;48.694;9.476;2023-02-28T09:01:09;7.47;;;5.50;;
50012;SDS011;35901;48.694;9.476;2023-02-28T09:03:35;6.10;;;5.40;;
50012;SDS011;35901;48.694;9.476;2023-02-28T09:06:01;7.63;;;5.57;;
50012;SDS011;35901;48.694;9.476;2023-02-28T09:08:29;9.37;;;6.13;;
50012;SDS011;35901;48.694;9.476;2023-02-28T09:10:55;10.17;;;7.87;;
50012;SDS011;35901;48.694;9.476;2023-02-28T09:13:23;7.77;;;4.87;;
50012;SDS011;35901;48.694;9.476;2023-02-28T09:15:50;8.20;;;6.33;;
50012;SDS011;35901;48.694;9.476;2023-02-28T09:18:16;8.63;;;6.60;;
50012;SDS011;35901;48.694;9.476;2023-02-28T09:20:42;7.10;;;5.30;;
50012;SDS011;35901;48.694;9.476;2023-02-28T09:23:09;9.93;;;7.20;;
50012;SDS011;35901;48.694;9.476;2023-02-28T09:25:37;9.60;;;4.70;;
50012;SDS011;35901;48.694;9.476;2023-02-28T09:28:09;9.93;;;6.33;;
50012;SDS011;35901;48.694;9.476;2023-02-28T09:30:36;7.13;;;3.87;;
50012;SDS011;35901;48.694;9.476;2023-02-28T09:33:02;7.93;;;5.90;;
50012;SDS011;35901;48.694;9.476;2023-02-28T09:35:28;6.93;;;5.73;;
50012;SDS011;35901;48.694;9.476;2023-02-28T09:37:55;9.03;;;7.57;;
50012;SDS011;35901;48.694;9.476;2023-02-28T09:40:23;9.33;;;6.90;;
50012;SDS011;35901;48.694;9.476;2023-02-28T09:42:51;5.87;;;4.63;;
50012;SDS011;35901;48.694;9.476;2023-02-28T09:45:22;8.87;;;6.13;;
50012;SDS011;35901;48.694;9.476;2023-02-28T09:47:59;9.77;;;6.97;;
50012;SDS011;35901;48.694;9.476;2023-02-28T09:53:14;7.37;;;5.73;;
50012;SDS011;35901;48.694;9.476;2023-02-28T09:55:45;5.53;;;4.40;;
50012;SDS011;35901;48.694;9.476;2023-02-28T09:58:18;6.60;;;5.83;;
50012;SDS011;35901;48.694;9.476;2023-02-28T10:01:00;6.23;;;5.27;;
50012;SDS011;35901;48.694;9.476;2023-02-28T10:03:35;3.87;;;3.47;;
50012;SDS011;35901;48.694;9.476;2023-02-28T10:06:26;7.73;;;5.50;;
50012;SDS011;35901;48.694;9.476;2023-02-28T10:09:07;7.17;;;6.03;;
50012;SDS011;35901;48.694;9.476;2023-02-28T10:11:38;7.47;;;5.03;;
50012;SDS011;35901;48.694;9.476;2023-02-28T10:16:47;9.80;;;6.83;;
50012;SDS011;35901;48.694;9.476;2023-02-28T10:21:56;6.07;;;4.97;;
50012;SDS011;35901;48.694;9.476;2023-02-28T10:26:56;6.80;;;4.70;;
50012;SDS011;35901;48.694;9.476;2023-02-28T10:29:27;8.60;;;6.03;;
50012;SDS011;35901;48.694;9.476;2023-02-28T10:31:54;7.37;;;5.23;;
50012;SDS011;35901;48.694;9.476;2023-02-28T10:34:20;6.80;;;6.00;;
50012;SDS011;35901;48.694;9.476;2023-02-28T10:36:46;7.27;;;5.87;;
50012;SDS011;35901;48.694;9.476;2023-02-28T10:42:03;8.43;;;6.57;;
50012;SDS011;35901;48.694;9.476;2023-02-28T10:44:29;8.33;;;6.47;;
50012;SDS011;35901;48.694;9.476;2023-02-28T10:46:55;8.57;;;7.40;;
50012;SDS011;35901;48.694;9.476;2023-02-28T10:51:58;7.20;;;5.93;;
50012;SDS011;35901;48.694;9.476;2023-02-28T10:54:36;8.50;;;7.20;;
50012;SDS011;35901;48.694;9.476;2023-02-28T10:59:42;8.70;;;5.43;;
50012;SDS011;35901;48.694;9.476;2023-02-28T11:04:57;8.70;;;7.80;;
50012;SDS011;35901;48.694;9.476;2023-02-28T11:07:23;9.27;;;7.90;;
50012;SDS011;35901;48.694;9.476;2023-02-28T11:09:56;9.17;;;6.57;;
50012;SDS011;35901;48.694;9.476;2023-02-28T11:12:31;9.53;;;8.27;;
50012;SDS011;35901;48.694;9.476;2023-02-28T11:15:02;7.10;;;6.23;;
50012;SDS011;35901;48.694;9.476;2023-02-28T11:17:31;10.23;;;8.27;;
50012;SDS011;35901;48.694;9.476;2023-02-28T11:19:59;8.47;;;7.27;;
50012;SDS011;35901;48.694;9.476;2023-02-28T11:22:29;8.83;;;7.47;;
50012;SDS011;35901;48.694;9.476;2023-02-28T11:24:59;9.37;;;7.37;;
50012;SDS011;35901;48.694;9.476;2023-02-28T11:29:57;9.33;;;8.43;;
50012;SDS011;35901;48.694;9.476;2023-02-28T11:32:24;9.03;;;5.53;;
50012;SDS011;35901;48.694;9.476;2023-02-28T11:35:03;9.10;;;8.20;;
50012;SDS011;35901;48.694;9.476;2023-02-28T11:37:36;6.07;;;5.07;;
50012;SDS011;35901;48.694;9.476;2023-02-28T11:40:05;9.13;;;7.50;;
50012;SDS011;35901;48.694;9.476;2023-02-28T11:47:56;9.53;;;7.63;;
50012;SDS011;35901;48.694;9.476;2023-02-28T11:56:44;10.33;;;7.73;;
50012;SDS011;35901;48.694;9.476;2023-02-28T12:02:16;9.63;;;8.03;;
50012;SDS011;35901;48.694;9.476;2023-02-28T12:10:29;6.73;;;5.70;;
50012;SDS011;35901;48.694;9.476;2023-02-28T12:18:22;7.27;;;6.57;;
50012;SDS011;35901;48.694;9.476;2023-02-28T12:21:15;6.70;;;6.00;;
50012;SDS011;35901;48.694;9.476;2023-02-28T12:23:54;10.17;;;7.80;;
50012;SDS011;35901;48.694;9.476;2023-02-28T12:31:53;10.07;;;9.00;;
50012;SDS011;35901;48.694;9.476;2023-02-28T12:34:33;9.70;;;8.30;;
50012;SDS011;35901;48.694;9.476;2023-02-28T12:37:14;8.77;;;7.43;;
50012;SDS011;35901;48.694;9.476;2023-02-28T12:39:48;8.07;;;5.60;;
50012;SDS011;35901;48.694;9.476;2023-02-28T12:42:27;9.37;;;8.47;;
50012;SDS011;35901;48.694;9.476;2023-02-28T12:44:57;8.83;;;7.93;;
50012;SDS011;35901;48.694;9.476;2023-02-28T12:47:26;8.50;;;7.67;;
50012;SDS011;35901;48.694;9.476;2023-02-28T12:49:53;9.57;;;7.83;;
50012;SDS011;35901;48.694;9.476;2023-02-28T12:58:20;8.67;;;7.87;;
50012;SDS011;35901;48.694;9.476;2023-02-28T13:03:51;8.47;;;7.57;;
50012;SDS011;35901;48.694;9.476;2023-02-28T13:06:45;8.03;;;7.27;;
50012;SDS011;35901;48.694;9.476;2023-02-28T13:09:20;9.57;;;8.43;;
50012;SDS011;35901;48.694;9.476;2023-02-28T13:11:47;9.07;;;7.67;;
50012;SDS011;35901;48.694;9.476;2023-02-28T13:16:54;8.07;;;7.27;;
50012;SDS011;35901;48.694;9.476;2023-02-28T13:19:57;8.83;;;7.93;;
50012;SDS011;35901;48.694;9.476;2023-02-28T13:22:42;8.30;;;7.47;;
50012;SDS011;35901;48.694;9.476;2023-02-28T13:28:10;8.50;;;7.70;;
50012;SDS011;35901;48.694;9.476;2023-02-28T13:38:42;8.30;;;7.50;;
50012;SDS011;35901;48.694;9.476;2023-02-28T13:44:04;9.10;;;7.67;;
50012;SDS011;35901;48.694;9.476;2023-02-28T13:46:32;7.23;;;6.03;;
50012;SDS011;35901;48.694;9.476;2023-02-28T13:49:19;8.00;;;7.20;;
50012;SDS011;35901;48.694;9.476;2023-02-28T13:58:07;8.30;;;7.50;;
50012;SDS011;35901;48.694;9.476;2023-02-28T14:06:29;7.73;;;6.93;;
50012;SDS011;35901;48.694;9.476;2023-02-28T14:11:28;8.23;;;6.87;;
50012;SDS011;35901;48.694;9.476;2023-02-28T14:14:05;8.30;;;7.50;;
50012;SDS011;35901;48.694;9.476;2023-02-28T14:16:44;6.57;;;5.80;;
50012;SDS011;35901;48.694;9.476;2023-02-28T14:19:34;7.93;;;7.13;;
50012;SDS011;35901;48.694;9.476;2023-02-28T14:22:05;8.33;;;7.53;;
50012;SDS011;35901;48.694;9.476;2023-02-28T14:28:27;8.50;;;7.33;;
50012;SDS011;35901;48.694;9.476;2023-02-28T14:33:57;9.60;;;8.03;;
50012;SDS011;35901;48.694;9.476;2023-02-28T14:36:37;8.20;;;7.37;;
50012;SDS011;35901;48.694;9.476;2023-02-28T14:39:06;5.03;;;4.07;;
50012;SDS011;35901;48.694;9.476;2023-02-28T14:41:38;7.13;;;5.27;;
50012;SDS011;35901;48.694;9.476;2023-02-28T14:46:54;9.97;;;8.27;;
50012;SDS011;35901;48.694;9.476;2023-02-28T14:49:34;9.10;;;8.20;;
50012;SDS011;35901;48.694;9.476;2023-02-28T14:52:05;9.43;;;7.73;;
50012;SDS011;35901;48.694;9.476;2023-02-28T14:58:25;8.50;;;7.10;;
50012;SDS011;35901;48.694;9.476;2023-02-28T15:00:54;8.37;;;7.53;;
50012;SDS011;35901;48.694;9.476;2023-02-28T15:03:35;9.30;;;8.40;;
50012;SDS011;35901;48.694;9.476;2023-02-28T15:06:03;9.23;;;7.97;;
50012;SDS011;35901;48.694;9.476;2023-02-28T15:08:42;8.97;;;7.90;;
50012;SDS011;35901;48.694;9.476;2023-02-28T15:11:12;8.07;;;5.90;;
50012;SDS011;35901;48.694;9.476;2023-02-28T15:13:51;9.27;;;8.30;;
50012;SDS011;35901;48.694;9.476;2023-02-28T15:16:21;9.33;;;8.30;;
50012;SDS011;35901;48.694;9.476;2023-02-28T15:18:54;8.87;;;7.67;;
50012;SDS011;35901;48.694;9.476;2023-02-28T15:21:22;9.30;;;7.10;;
50012;SDS011;35901;48.694;9.476;2023-02-28T15:27:44;8.13;;;7.27;;
50012;SDS011;35901;48.694;9.476;2023-02-28T15:30:15;8.70;;;7.07;;
50012;SDS011;35901;48.694;9.476;2023-02-28T15:33:01;8.60;;;7.00;;
50012;SDS011;35901;48.694;9.476;2023-02-28T15:35:30;7.40;;;6.37;;
50012;SDS011;35901;48.694;9.476;2023-02-28T15:38:01;8.77;;;7.90;;
50012;SDS011;35901;48.694;9.476;2023-02-28T15:41:02;8.53;;;7.63;;
50012;SDS011;35901;48.694;9.476;2023-02-28T15:43:36;8.17;;;7.03;;
50012;SDS011;35901;48.694;9.476;2023-02-28T15:46:08;9.37;;;8.37;;
50012;SDS011;35901;48.694;9.476;2023-02-28T15:48:54;9.83;;;7.10;;
50012;SDS011;35901;48.694;9.476;2023-02-28T15:51:32;10.87;;;8.17;;
50012;SDS011;35901;48.694;9.476;2023-02-28T15:57:52;9.27;;;8.27;;
50012;SDS011;35901;48.694;9.476;2023-02-28T16:00:22;8.23;;;6.67;;
50012;SDS011;35901;48.694;9.476;2023-02-28T16:02:50;10.47;;;8.10;;
50012;SDS011;35901;48.694;9.476;2023-02-28T16:05:20;10.50;;;8.57;;
50012;SDS011;35901;48.694;9.476;2023-02-28T16:07:53;8.80;;;6.53;;
50012;SDS011;35901;48.694;9.476;2023-02-28T16:10:20;9.77;;;8.07;;
50012;SDS011;35901;48.694;9.476;2023-02-28T16:12:48;10.60;;;8.40;;
50012;SDS011;35901;48.694;9.476;2023-02-28T16:17:47;9.73;;;7.97;;
50012;SDS011;35901;48.694;9.476;2023-02-28T16:20:14;10.37;;;8.60;;
50012;SDS011;35901;48.694;9.476;2023-02-28T16:25:49;10.47;;;8.80;;
50012;SDS011;35901;48.694;9.476;2023-02-28T16:28:18;6.33;;;5.30;;
50012;SDS011;35901;48.694;9.476;2023-02-28T16:30:46;10.20;;;9.10;;
50012;SDS011;35901;48.694;9.476;2023-02-28T16:33:12;10.83;;;8.53;;
50012;SDS011;35901;48.694;9.476;2023-02-28T16:35:38;9.93;;;8.93;;
50012;SDS011;35901;48.694;9.476;2023-02-28T16:38:04;10.43;;;8.73;;
50012;SDS011;35901;48.694;9.476;2023-02-28T16:40:29;11.17;;;9.27;;
50012;SDS011;35901;48.694;9.476;2023-02-28T16:43:00;12.50;;;8.90;;
50012;SDS011;35901;48.694;9.476;2023-02-28T16:45:29;10.23;;;9.13;;
50012;SDS011;35901;48.694;9.476;2023-02-28T16:47:55;11.00;;;9.00;;
50012;SDS011;35901;48.694;9.476;2023-02-28T16:50:22;12.50;;;8.80;;
50012;SDS011;35901;48.694;9.476;2023-02-28T16:52:51;11.10;;;9.07;;
50012;SDS011;35901;48.694;9.476;2023-02-28T16:55:19;9.87;;;7.80;;
50012;SDS011;35901;48.694;9.476;2023-02-28T16:57:53;9.40;;;8.27;;
50012;SDS011;35901;48.694;9.476;2023-02-28T17:00:20;11.07;;;9.37;;
50012;SDS011;35901;48.694;9.476;2023-02-28T17:02:46;11.57;;;8.63;;
50012;SDS011;35901;48.694;9.476;2023-02-28T17:05:12;11.23;;;9.00;;
50012;SDS011;35901;48.694;9.476;2023-02-28T17:07:40;10.63;;;8.90;;
50012;SDS011;35901;48.694;9.476;2023-02-28T17:10:12;10.97;;;9.17;;
50012;SDS011;35901;48.694;9.476;2023-02-28T17:12:48;11.20;;;8.97;;
50012;SDS011;35901;48.694;9.476;2023-02-28T17:15:15;11.93;;;9.67;;
50012;SDS011;35901;48.694;9.476;2023-02-28T17:17:43;11.00;;;9.03;;
50012;SDS011;35901;48.694;9.476;2023-02-28T17:20:13;10.27;;;9.03;;
50012;SDS011;35901;48.694;9.476;2023-02-28T17:26:26;11.27;;;9.60;;
50012;SDS011;35901;48.694;9.476;2023-02-28T17:28:53;11.17;;;9.27;;
50012;SDS011;35901;48.694;9.476;2023-02-28T17:31:23;11.93;;;8.77;;
50012;SDS011;35901;48.694;9.476;2023-02-28T17:33:49;12.17;;;8.93;;
50012;SDS011;35901;48.694;9.476;2023-02-28T17:36:16;12.40;;;9.90;;
50012;SDS011;35901;48.694;9.476;2023-02-28T17:38:50;11.77;;;9.63;;
50012;SDS011;35901;48.694;9.476;2023-02-28T17:41:15;12.20;;;9.97;;
50012;SDS011;35901;48.694;9.476;2023-02-28T17:43:41;10.90;;;8.90;;
50012;SDS011;35901;48.694;9.476;2023-02-28T17:46:17;11.27;;;9.57;;